createdAt,value
2019-05-14T00:01:08.347Z,59.20
2019-05-14T00:03:37.258Z,59.40
2019-05-14T00:06:04.871Z,59.60
2019-05-14T00:08:32.471Z,59.50
2019-05-14T00:11:01.459Z,59.60
2019-05-14T00:13:29.202Z,59.70
2019-05-14T00:15:57.022Z,59.80
2019-05-14T00:18:25.281Z,59.90
2019-05-14T00:20:53.509Z,59.90
2019-05-14T00:23:21.702Z,60.10
2019-05-14T00:25:49.521Z,60.10
2019-05-14T00:28:17.084Z,60.30
2019-05-14T00:30:44.775Z,60.20
2019-05-14T00:33:12.606Z,60.40
2019-05-14T00:35:41.351Z,61.00
2019-05-14T00:38:09.217Z,60.50
2019-05-14T00:40:37.137Z,60.50
2019-05-14T00:43:04.924Z,60.60
2019-05-14T00:45:32.994Z,60.90
2019-05-14T00:48:01.526Z,61.00
2019-05-14T00:50:31.529Z,61.10
2019-05-14T00:52:59.031Z,61.30
2019-05-14T00:55:26.251Z,61.70
2019-05-14T00:57:54.063Z,61.80
2019-05-14T01:00:22.161Z,62.10
2019-05-14T01:02:51.808Z,62.10
2019-05-14T01:05:21.388Z,62.30
2019-05-14T01:07:51.220Z,62.40
2019-05-14T01:10:18.724Z,62.80
2019-05-14T01:12:46.255Z,63.00
2019-05-14T01:15:14.394Z,63.10
2019-05-14T01:17:42.273Z,63.50
2019-05-14T01:20:12.304Z,63.70
2019-05-14T01:22:42.157Z,63.70
2019-05-14T01:25:11.812Z,63.90
2019-05-14T01:27:41.119Z,63.90
2019-05-14T01:30:08.661Z,64.10
2019-05-14T01:32:36.100Z,64.60
2019-05-14T01:35:03.727Z,64.70
2019-05-14T01:37:31.300Z,64.80
2019-05-14T01:40:01.033Z,64.90
2019-05-14T01:42:28.549Z,64.80
2019-05-14T01:44:56.151Z,64.90
2019-05-14T01:47:24.345Z,65.00
2019-05-14T01:49:51.982Z,65.30
2019-05-14T01:52:21.744Z,65.00
2019-05-14T01:54:51.568Z,65.20
2019-05-14T01:57:19.035Z,65.30
2019-05-14T01:59:47.164Z,65.40
2019-05-14T02:02:14.727Z,65.50
2019-05-14T02:04:42.960Z,65.90
2019-05-14T02:07:11.784Z,65.80
2019-05-14T02:09:41.785Z,65.90
2019-05-14T02:12:11.621Z,66.00
2019-05-14T02:14:42.135Z,66.00
2019-05-14T02:17:08.877Z,66.30
2019-05-14T02:19:37.357Z,66.30
2019-05-14T02:22:08.366Z,66.50
2019-05-14T02:24:36.247Z,66.50
2019-05-14T02:27:03.989Z,66.60
2019-05-14T02:29:32.331Z,66.80
2019-05-14T02:32:00.037Z,66.80
2019-05-14T02:34:29.937Z,67.00
2019-05-14T02:37:00.197Z,67.00
2019-05-14T02:39:29.008Z,67.10
2019-05-14T02:41:58.764Z,67.40
2019-05-14T02:44:25.665Z,67.50
2019-05-14T02:46:53.286Z,67.60
2019-05-14T02:49:20.678Z,67.60
2019-05-14T02:51:50.378Z,67.70
2019-05-14T02:54:20.393Z,67.80
2019-05-14T02:56:49.572Z,67.90
2019-05-14T02:59:19.672Z,68.10
2019-05-14T03:01:50.262Z,68.20
2019-05-14T03:04:19.738Z,68.30
2019-05-14T03:06:49.861Z,68.30
2019-05-14T03:09:20.460Z,68.60
2019-05-14T03:11:48.592Z,68.80
2019-05-14T03:14:19.320Z,68.90
2019-05-14T03:16:49.322Z,69.00
2019-05-14T03:19:19.240Z,69.10
2019-05-14T03:21:45.958Z,68.90
2019-05-14T03:24:13.565Z,69.10
2019-05-14T03:26:41.568Z,69.10
2019-05-14T03:29:10.149Z,69.20
2019-05-14T03:31:42.847Z,69.30
2019-05-14T03:34:13.404Z,69.30
2019-05-14T03:36:43.029Z,69.50
2019-05-14T03:39:10.537Z,69.40
2019-05-14T03:41:39.741Z,69.40
2019-05-14T03:44:09.947Z,69.50
2019-05-14T03:46:45.963Z,69.60
2019-05-14T03:49:09.286Z,69.60
2019-05-14T03:51:40.312Z,69.80
2019-05-14T03:54:12.444Z,69.80
2019-05-14T03:56:39.502Z,69.80
2019-05-14T03:59:09.610Z,70.00
2019-05-14T04:01:40.109Z,70.00
2019-05-14T04:04:10.226Z,70.10
2019-05-14T04:06:40.329Z,70.00
2019-05-14T04:09:09.683Z,70.10
2019-05-14T04:11:41.372Z,70.20
2019-05-14T04:14:13.091Z,70.20
2019-05-14T04:16:59.869Z,70.50
2019-05-14T04:19:18.835Z,70.50
2019-05-14T04:21:50.642Z,70.60
2019-05-14T04:24:22.443Z,70.70
2019-05-14T04:27:02.114Z,70.80
2019-05-14T04:29:23.252Z,71.00
2019-05-14T04:31:52.950Z,71.00
2019-05-14T04:34:22.121Z,71.10
2019-05-14T04:36:52.698Z,71.20
2019-05-14T04:39:21.000Z,71.30
2019-05-14T04:42:00.972Z,71.30
2019-05-14T04:44:29.830Z,71.50
2019-05-14T04:47:00.077Z,71.60
2019-05-14T04:49:29.719Z,71.70
2019-05-14T04:51:59.490Z,71.80
2019-05-14T04:54:30.229Z,72.00
2019-05-14T04:57:00.010Z,72.00
2019-05-14T04:59:29.911Z,72.20
2019-05-14T05:02:00.212Z,72.40
2019-05-14T05:04:29.958Z,72.40
2019-05-14T05:06:59.205Z,72.60
2019-05-14T05:09:29.303Z,72.80
2019-05-14T05:11:59.763Z,73.70
2019-05-14T05:14:29.455Z,73.00
2019-05-14T05:16:59.801Z,73.20
2019-05-14T05:19:29.011Z,73.30
2019-05-14T05:21:58.691Z,73.40
2019-05-14T05:24:28.720Z,73.70
2019-05-14T05:26:58.544Z,73.80
2019-05-14T05:29:28.413Z,74.00
2019-05-14T05:31:55.942Z,74.20
2019-05-14T05:34:24.265Z,74.20
2019-05-14T05:36:52.832Z,74.30
2019-05-14T05:39:21.651Z,74.50
2019-05-14T05:41:49.665Z,74.40
2019-05-14T05:44:18.811Z,74.80
2019-05-14T05:46:49.165Z,74.80
2019-05-14T05:49:18.597Z,75.00
2019-05-14T05:51:48.341Z,75.30
2019-05-14T05:54:18.590Z,75.30
2019-05-14T05:56:48.169Z,75.50
2019-05-14T05:59:18.960Z,75.60
2019-05-14T06:01:50.250Z,75.90
2019-05-14T06:04:18.342Z,75.90
2019-05-14T06:06:48.025Z,76.00
2019-05-14T06:09:15.449Z,76.30
2019-05-14T06:11:43.520Z,76.30
2019-05-14T06:14:11.480Z,76.40
2019-05-14T06:16:40.018Z,76.10
2019-05-14T06:19:08.350Z,76.40
2019-05-14T06:21:39.873Z,76.60
2019-05-14T06:24:09.021Z,76.50
2019-05-14T06:26:38.445Z,76.70
2019-05-14T06:29:08.190Z,76.40
2019-05-14T06:31:38.435Z,76.20
2019-05-14T06:34:09.488Z,76.20
2019-05-14T06:36:39.524Z,76.20
2019-05-14T06:39:09.102Z,76.10
2019-05-14T06:41:42.419Z,76.00
2019-05-14T06:44:09.039Z,76.00
2019-05-14T06:46:42.492Z,76.20
2019-05-14T06:49:11.969Z,76.10
2019-05-14T06:51:39.730Z,76.30
2019-05-14T06:54:09.216Z,76.10
2019-05-14T06:56:38.526Z,76.10
2019-05-14T06:59:08.979Z,76.20
2019-05-14T07:01:38.415Z,76.30
2019-05-14T07:04:08.794Z,76.50
2019-05-14T07:06:39.085Z,76.70
2019-05-14T07:09:08.904Z,76.90
2019-05-14T07:11:38.637Z,76.40
2019-05-14T07:14:11.360Z,76.50
2019-05-14T07:16:38.940Z,76.60
2019-05-14T07:19:09.483Z,76.50
2019-05-14T07:21:38.378Z,76.60
2019-05-14T07:24:08.771Z,76.70
2019-05-14T07:26:38.872Z,76.60
2019-05-14T07:29:11.234Z,77.30
2019-05-14T07:31:38.493Z,76.70
2019-05-14T07:34:09.095Z,76.70
2019-05-14T07:36:38.700Z,76.30
2019-05-14T07:39:09.282Z,76.30
2019-05-14T07:41:39.081Z,76.40
2019-05-14T07:44:09.232Z,76.60
2019-05-14T07:46:39.002Z,76.60
2019-05-14T07:49:10.905Z,76.80
2019-05-14T07:51:38.839Z,76.90
2019-05-14T07:54:08.347Z,76.30
2019-05-14T07:56:38.268Z,76.20
2019-05-14T07:59:05.701Z,76.40
2019-05-14T08:01:33.312Z,76.40
2019-05-14T08:04:01.501Z,76.70
2019-05-14T08:06:29.277Z,76.50
2019-05-14T08:08:59.241Z,76.10
2019-05-14T08:11:28.044Z,76.20
2019-05-14T08:13:59.341Z,76.00
2019-05-14T08:16:28.783Z,76.10
2019-05-14T08:18:56.464Z,76.10
2019-05-14T08:21:24.554Z,76.30
2019-05-14T08:23:52.656Z,76.40
2019-05-14T08:26:20.678Z,76.30
2019-05-14T08:28:48.896Z,76.20
2019-05-14T08:31:18.715Z,76.30
2019-05-14T08:33:48.796Z,76.10
2019-05-14T08:36:18.180Z,75.30
2019-05-14T08:38:45.570Z,75.20
2019-05-14T08:41:19.726Z,75.20
2019-05-14T08:43:48.979Z,75.40
2019-05-14T08:46:19.228Z,76.60
2019-05-14T08:48:46.260Z,75.60
2019-05-14T08:51:14.624Z,75.30
2019-05-14T08:53:42.715Z,75.90
2019-05-14T08:56:13.742Z,76.00
2019-05-14T08:58:41.579Z,76.00
2019-05-14T09:01:11.671Z,75.60
2019-05-14T09:03:39.706Z,75.20
2019-05-14T09:06:09.102Z,75.40
2019-05-14T09:08:40.235Z,75.30
2019-05-14T09:11:09.824Z,75.10
2019-05-14T09:13:38.306Z,75.30
2019-05-14T09:16:09.019Z,75.50
2019-05-14T09:18:38.259Z,75.40
2019-05-14T09:21:05.518Z,75.20
2019-05-14T09:23:33.431Z,75.10
2019-05-14T09:26:02.839Z,75.00
2019-05-14T09:28:31.377Z,75.00
2019-05-14T09:30:59.819Z,74.50
2019-05-14T09:33:29.617Z,75.30
2019-05-14T09:36:11.055Z,74.40
2019-05-14T09:38:29.141Z,74.00
2019-05-14T09:41:08.066Z,74.40
2019-05-14T09:43:28.427Z,73.90
2019-05-14T09:45:55.505Z,73.90
2019-05-14T09:48:23.212Z,73.50
2019-05-14T09:50:51.032Z,73.10
2019-05-14T09:53:19.105Z,72.80
2019-05-14T09:55:48.925Z,72.70
2019-05-14T09:58:19.586Z,73.10
2019-05-14T10:00:48.324Z,72.80
2019-05-14T10:03:15.360Z,72.70
2019-05-14T10:05:43.391Z,71.90
2019-05-14T10:08:11.970Z,71.40
2019-05-14T10:10:40.084Z,70.40
2019-05-14T10:13:09.731Z,69.90
2019-05-14T10:15:39.703Z,68.90
2019-05-14T10:18:11.661Z,68.50
2019-05-14T10:20:45.172Z,68.60
2019-05-14T10:23:09.269Z,68.50
2019-05-14T10:25:40.211Z,68.40
2019-05-14T10:28:08.619Z,68.50
2019-05-14T10:30:37.112Z,68.90
2019-05-14T10:33:10.399Z,69.00
2019-05-14T10:35:34.481Z,69.00
2019-05-14T10:38:02.975Z,68.90
2019-05-14T10:40:30.633Z,68.40
2019-05-14T10:42:58.501Z,67.90
2019-05-14T10:45:28.761Z,68.10
2019-05-14T10:47:58.581Z,68.20
2019-05-14T10:50:28.806Z,68.70
2019-05-14T10:52:56.050Z,68.60
2019-05-14T10:55:24.528Z,68.20
2019-05-14T10:57:54.408Z,68.30
2019-05-14T11:00:22.074Z,67.80
2019-05-14T11:02:49.545Z,67.80
2019-05-14T11:05:18.753Z,67.80
2019-05-14T11:07:48.222Z,67.80
2019-05-14T11:10:19.813Z,67.80
2019-05-14T11:12:50.123Z,67.60
2019-05-14T11:15:19.148Z,67.60
2019-05-14T11:17:48.749Z,67.30
2019-05-14T11:20:19.220Z,67.20
2019-05-14T11:22:49.003Z,67.20
2019-05-14T11:25:19.428Z,67.20
2019-05-14T11:27:49.137Z,66.40
2019-05-14T11:30:19.044Z,66.30
2019-05-14T11:32:49.044Z,66.20
2019-05-14T11:35:18.975Z,66.30
2019-05-14T11:37:47.880Z,65.90
2019-05-14T11:40:18.746Z,66.10
2019-05-14T11:42:46.061Z,66.10
2019-05-14T11:45:14.124Z,66.60
2019-05-14T11:47:41.836Z,66.60
2019-05-14T11:50:11.093Z,66.50
2019-05-14T11:52:38.913Z,66.60
2019-05-14T11:55:09.062Z,66.70
2019-05-14T11:57:37.545Z,66.80
2019-05-14T12:00:08.491Z,66.50
2019-05-14T12:02:38.554Z,66.80
2019-05-14T12:05:08.863Z,66.50
2019-05-14T12:07:38.808Z,67.00
2019-05-14T12:10:10.248Z,66.10
2019-05-14T12:12:38.031Z,66.10
2019-05-14T12:15:06.149Z,65.80
2019-05-14T12:17:34.579Z,66.00
2019-05-14T12:20:02.344Z,66.10
2019-05-14T12:22:30.093Z,66.00
2019-05-14T12:24:58.446Z,65.70
2019-05-14T12:27:26.499Z,65.50
2019-05-14T12:29:54.530Z,65.60
2019-05-14T12:32:22.176Z,65.60
2019-05-14T12:34:50.082Z,65.50
2019-05-14T12:37:18.703Z,65.30
2019-05-14T12:39:46.820Z,64.70
2019-05-14T12:42:14.787Z,64.60
2019-05-14T12:44:42.474Z,65.00
2019-05-14T12:47:09.896Z,65.40
2019-05-14T12:49:38.804Z,65.60
2019-05-14T12:52:20.990Z,65.80
2019-05-14T12:54:38.603Z,66.00
2019-05-14T12:57:05.461Z,65.90
2019-05-14T12:59:33.546Z,65.10
2019-05-14T13:02:01.995Z,65.20
2019-05-14T13:04:29.785Z,65.00
2019-05-14T13:06:59.708Z,65.10
2019-05-14T13:09:27.562Z,65.20
2019-05-14T13:11:55.328Z,64.60
2019-05-14T13:14:23.068Z,64.20
2019-05-14T13:16:54.456Z,64.30
2019-05-14T13:19:21.173Z,64.50
2019-05-14T13:21:59.380Z,64.60
2019-05-14T13:24:18.836Z,64.70
2019-05-14T13:26:49.187Z,64.70
2019-05-14T13:29:19.133Z,64.50
2019-05-14T13:31:46.245Z,64.40
2019-05-14T13:34:13.742Z,63.90
2019-05-14T13:36:44.791Z,64.10
2019-05-14T13:39:11.385Z,64.30
2019-05-14T13:41:41.827Z,64.60
2019-05-14T13:44:22.779Z,63.70
2019-05-14T13:46:39.265Z,63.20
2019-05-14T13:49:07.141Z,62.90
2019-05-14T13:51:35.114Z,62.90
2019-05-14T13:54:03.509Z,63.40
2019-05-14T13:56:32.113Z,64.00
2019-05-14T13:59:00.507Z,63.30
2019-05-14T14:01:29.781Z,62.80
2019-05-14T14:04:10.305Z,61.70
2019-05-14T14:06:28.363Z,62.00
2019-05-14T14:08:59.099Z,62.20
2019-05-14T14:11:28.617Z,62.30
2019-05-14T14:13:58.409Z,61.90
2019-05-14T14:16:28.379Z,62.10
2019-05-14T14:18:55.983Z,62.20
2019-05-14T14:21:24.531Z,62.30
2019-05-14T14:23:52.140Z,62.60
2019-05-14T14:26:19.997Z,63.60
2019-05-14T14:28:49.257Z,64.60
2019-05-14T14:31:18.911Z,63.10
2019-05-14T14:33:48.758Z,63.20
2019-05-14T14:36:20.015Z,62.40
2019-05-14T14:38:49.319Z,62.00
2019-05-14T14:41:16.112Z,61.70
2019-05-14T14:43:44.649Z,62.20
2019-05-14T14:46:14.256Z,61.40
2019-05-14T14:48:43.692Z,61.20
2019-05-14T14:51:11.643Z,61.30
2019-05-14T14:53:52.480Z,60.40
2019-05-14T14:56:09.922Z,60.20
2019-05-14T14:58:39.190Z,59.50
2019-05-14T15:01:09.097Z,59.60
2019-05-14T15:03:37.026Z,59.90
2019-05-14T15:06:09.293Z,59.90
2019-05-14T15:08:35.494Z,60.20
2019-05-14T15:11:03.048Z,60.00
2019-05-14T15:13:31.059Z,59.50
2019-05-14T15:16:01.144Z,59.10
2019-05-14T15:18:28.923Z,59.40
2019-05-14T15:20:58.860Z,59.10
2019-05-14T15:23:28.606Z,59.20
2019-05-14T15:25:58.950Z,58.90
2019-05-14T15:28:26.884Z,58.90
2019-05-14T15:30:55.875Z,58.60
2019-05-14T15:33:29.233Z,57.90
2019-05-14T15:35:58.128Z,57.90
2019-05-14T15:38:30.072Z,57.70
2019-05-14T15:40:55.605Z,57.60
2019-05-14T15:43:24.027Z,56.90
2019-05-14T15:45:52.324Z,56.70
2019-05-14T15:48:20.767Z,56.50
2019-05-14T15:50:50.166Z,56.40
2019-05-14T15:53:19.491Z,56.10
2019-05-14T15:55:49.045Z,56.10
2019-05-14T15:58:21.261Z,55.90
2019-05-14T16:00:46.452Z,55.90
2019-05-14T16:03:14.355Z,55.90
2019-05-14T16:05:42.868Z,55.70
2019-05-14T16:08:10.963Z,55.30
2019-05-14T16:10:39.867Z,54.60
2019-05-14T16:13:08.928Z,53.40
2019-05-14T16:15:38.933Z,52.20
2019-05-14T16:18:15.430Z,52.30
2019-05-14T16:20:39.193Z,52.60
2019-05-14T16:23:10.533Z,52.80
2019-05-14T16:25:38.040Z,52.70
2019-05-14T16:28:08.554Z,52.80
2019-05-14T16:30:35.975Z,53.00
2019-05-14T16:33:09.346Z,52.90
2019-05-14T16:35:39.110Z,53.10
2019-05-14T16:38:08.378Z,53.30
2019-05-14T16:40:39.266Z,53.40
2019-05-14T16:43:06.201Z,53.10
2019-05-14T16:45:34.256Z,53.10
2019-05-14T16:48:02.417Z,53.00
2019-05-14T16:50:30.224Z,53.30
2019-05-14T16:52:58.870Z,53.70
2019-05-14T16:55:30.271Z,53.90
2019-05-14T16:57:58.265Z,54.10
2019-05-14T17:00:25.930Z,54.30
2019-05-14T17:02:54.198Z,54.20
2019-05-14T17:05:22.547Z,54.00
2019-05-14T17:07:50.347Z,54.10
2019-05-14T17:10:18.273Z,54.00
2019-05-14T17:12:53.566Z,53.70
2019-05-14T17:15:18.120Z,53.50
2019-05-14T17:17:48.254Z,53.60
2019-05-14T17:20:15.992Z,53.80
2019-05-14T17:22:44.112Z,53.90
2019-05-14T17:25:26.330Z,53.90
2019-05-14T17:27:41.998Z,53.60
2019-05-14T17:30:10.633Z,53.80
2019-05-14T17:32:39.468Z,53.70
2019-05-14T17:35:08.286Z,53.90
2019-05-14T17:37:39.167Z,53.70
2019-05-14T17:40:09.431Z,53.60
2019-05-14T17:42:39.365Z,53.40
2019-05-14T17:45:08.506Z,53.30
2019-05-14T17:47:38.786Z,53.20
2019-05-14T17:50:07.194Z,53.40
2019-05-14T17:52:43.316Z,53.40
2019-05-14T17:55:12.171Z,53.50
2019-05-14T17:57:45.192Z,53.60
2019-05-14T18:00:09.478Z,53.70
2019-05-14T18:02:37.623Z,53.40
2019-05-14T18:05:05.517Z,53.40
2019-05-14T18:07:33.545Z,53.30
2019-05-14T18:10:01.436Z,53.30
2019-05-14T18:12:30.564Z,53.40
2019-05-14T18:14:59.615Z,53.50
2019-05-14T18:17:29.568Z,53.80
2019-05-14T18:19:58.901Z,54.10
2019-05-14T18:22:28.640Z,53.90
2019-05-14T18:24:59.107Z,53.90
2019-05-14T18:27:29.221Z,54.00
2019-05-14T18:29:59.099Z,54.10
2019-05-14T18:32:26.283Z,54.00
2019-05-14T18:34:54.589Z,54.00
2019-05-14T18:37:22.794Z,54.00
2019-05-14T18:39:50.370Z,54.00
2019-05-14T18:42:19.092Z,54.10
2019-05-14T18:44:46.626Z,54.20
2019-05-14T18:47:16.964Z,54.30
2019-05-14T18:49:44.517Z,54.30
2019-05-14T18:52:12.305Z,54.50
2019-05-14T18:54:40.058Z,54.70
2019-05-14T18:57:11.964Z,55.00
2019-05-14T18:59:39.080Z,55.10
2019-05-14T19:02:08.580Z,56.00
2019-05-14T19:04:38.205Z,55.50
2019-05-14T19:07:05.826Z,55.40
2019-05-14T19:09:33.602Z,55.60
2019-05-14T19:12:01.475Z,55.70
2019-05-14T19:14:29.655Z,55.70
2019-05-14T19:16:58.466Z,55.70
2019-05-14T19:19:29.361Z,55.90
2019-05-14T19:21:58.383Z,56.10
2019-05-14T19:24:28.671Z,56.30
2019-05-14T19:26:59.338Z,56.30
2019-05-14T19:29:28.147Z,56.60
2019-05-14T19:31:55.828Z,56.70
2019-05-14T19:34:23.579Z,56.70
2019-05-14T19:36:51.786Z,56.90
2019-05-14T19:39:19.359Z,57.10
2019-05-14T19:41:48.404Z,57.20
2019-05-14T19:44:19.068Z,57.30
2019-05-14T19:46:49.243Z,57.30
2019-05-14T19:49:18.450Z,57.50
2019-05-14T19:51:48.276Z,57.70
2019-05-14T19:54:19.185Z,57.70
2019-05-14T19:56:53.287Z,57.90
2019-05-14T19:59:19.423Z,58.00
2019-05-14T20:01:48.389Z,58.30
2019-05-14T20:04:18.122Z,58.40
2019-05-14T20:06:49.437Z,58.30
2019-05-14T20:09:18.942Z,58.20
2019-05-14T20:11:48.874Z,58.00
2019-05-14T20:14:16.269Z,58.00
2019-05-14T20:16:44.550Z,58.10
2019-05-14T20:19:12.117Z,58.50
2019-05-14T20:21:39.782Z,58.40
2019-05-14T20:24:07.663Z,58.30
2019-05-14T20:26:39.163Z,58.10
2019-05-14T20:29:08.734Z,58.50
2019-05-14T20:31:38.768Z,58.30
2019-05-14T20:34:08.344Z,58.40
2019-05-14T20:36:38.778Z,58.50
2019-05-14T20:39:08.483Z,58.80
2019-05-14T20:41:38.224Z,59.10
2019-05-14T20:44:05.881Z,58.90
2019-05-14T20:46:33.555Z,59.10
2019-05-14T20:49:01.219Z,58.90
2019-05-14T20:51:30.431Z,58.90
2019-05-14T20:53:58.145Z,58.80
2019-05-14T20:56:30.314Z,59.00
2019-05-14T20:58:58.977Z,59.40
2019-05-14T21:01:28.933Z,59.40
2019-05-14T21:03:59.267Z,59.00
2019-05-14T21:06:28.056Z,59.20
2019-05-14T21:08:55.588Z,59.70
2019-05-14T21:11:23.284Z,60.10
2019-05-14T21:13:51.231Z,60.00
2019-05-14T21:16:18.696Z,60.70
2019-05-14T21:18:48.628Z,60.10
2019-05-14T21:21:15.693Z,60.40
2019-05-14T21:23:43.043Z,60.10
2019-05-14T21:26:10.585Z,60.50
2019-05-14T21:28:39.318Z,60.40
2019-05-14T21:31:10.139Z,61.00
2019-05-14T21:33:36.437Z,60.60
2019-05-14T21:36:09.510Z,61.10
2019-05-14T21:38:37.892Z,61.30
2019-05-14T21:41:06.826Z,61.20
2019-05-14T21:43:34.631Z,61.40
2019-05-14T21:46:02.040Z,62.20
2019-05-14T21:48:30.604Z,62.40
2019-05-14T21:51:00.586Z,62.00
2019-05-14T21:53:27.598Z,61.70
2019-05-14T21:55:55.344Z,62.70
2019-05-14T21:58:23.108Z,62.10
2019-05-14T22:00:53.175Z,62.30
2019-05-14T22:03:21.088Z,62.60
2019-05-14T22:05:51.695Z,62.50
2019-05-14T22:08:18.558Z,63.50
2019-05-14T22:10:48.703Z,62.40
2019-05-14T22:13:18.066Z,62.30
2019-05-14T22:15:45.739Z,62.70
2019-05-14T22:18:17.942Z,63.20
2019-05-14T22:20:43.396Z,62.50
2019-05-14T22:23:17.877Z,63.00
2019-05-14T22:25:48.575Z,63.50
2019-05-14T22:28:16.853Z,63.30
2019-05-14T22:30:45.242Z,63.00
2019-05-14T22:33:12.990Z,62.90
2019-05-14T22:35:40.652Z,63.50
2019-05-14T22:38:08.417Z,63.90
2019-05-14T22:40:38.800Z,64.00
2019-05-14T22:43:08.815Z,63.90
2019-05-14T22:45:35.830Z,64.00
2019-05-14T22:48:04.313Z,64.00
2019-05-14T22:50:32.201Z,63.80
2019-05-14T22:52:59.931Z,63.80
2019-05-14T22:55:28.932Z,63.80
2019-05-14T22:57:59.287Z,64.10
2019-05-14T23:00:28.615Z,64.00
2019-05-14T23:02:56.507Z,64.10
2019-05-14T23:05:24.288Z,64.80
2019-05-14T23:07:51.740Z,64.20
2019-05-14T23:10:38.917Z,64.10
2019-05-14T23:13:06.504Z,63.80
2019-05-14T23:15:38.551Z,64.30
2019-05-14T23:18:08.487Z,64.60
2019-05-14T23:20:38.923Z,64.50
2019-05-14T23:23:05.758Z,64.20
2019-05-14T23:25:33.126Z,64.20
2019-05-14T23:28:01.147Z,64.00
2019-05-14T23:30:32.369Z,64.40
2019-05-14T23:33:00.307Z,64.20
2019-05-14T23:35:28.510Z,64.20
2019-05-14T23:37:56.135Z,64.50
2019-05-14T23:40:25.552Z,64.30
2019-05-14T23:42:52.922Z,64.10
2019-05-14T23:45:21.092Z,63.90
2019-05-14T23:47:49.434Z,64.20
2019-05-14T23:50:17.002Z,64.10
2019-05-14T23:52:45.086Z,64.20
2019-05-14T23:55:13.042Z,64.40
2019-05-14T23:57:41.318Z,63.80
